Time;durP1;ratioP1;P1;durP2;ratioP2;P2;SDS_P1;SDS_P2;PMS_P1;PMS_P2;Temp;Humidity;BMP_temperature;BMP_pressure;BME280_temperature;BME280_humidity;BME280_pressure;Samples;Min_cycle;Max_cycle;Signal;HPM_P1;HPM_P2
2023/04/28 00:02:13;;;;;;;3.63;3.23;;;9.20;59.60;;;9.22;44.45;95171.13;4992618;28;20465;-57
2023/04/28 00:04:42;;;;;;;8.63;2.00;;;9.20;59.60;;;9.18;44.62;95170.53;4996311;28;20457;-66
2023/04/28 00:07:09;;;;;;;6.03;2.87;;;9.20;59.80;;;9.14;44.50;95166.50;4996348;28;20472;-67
2023/04/28 00:09:36;;;;;;;8.20;2.73;;;9.10;59.70;;;9.11;45.14;95170.19;4995189;28;20494;-66
2023/04/28 00:12:04;;;;;;;4.80;2.27;;;9.10;59.80;;;9.09;45.20;95171.28;4998360;28;20466;-67
2023/04/28 00:14:32;;;;;;;2.70;1.90;;;9.10;60.00;;;9.06;45.25;95177.63;4993881;28;20469;-57
2023/04/28 00:16:59;;;;;;;4.63;2.40;;;9.00;60.20;;;9.02;44.84;95175.34;4995872;28;20470;-57
2023/04/28 00:19:26;;;;;;;2.77;1.87;;;9.00;60.10;;;8.99;44.91;95175.59;4995567;28;20463;-67
2023/04/28 00:21:55;;;;;;;3.83;2.20;;;9.00;60.10;;;8.94;44.96;95176.78;4994183;28;20486;-57
2023/04/28 00:24:22;;;;;;;5.40;2.17;;;8.90;60.20;;;8.91;45.47;95170.97;4997753;28;20907;-56
2023/04/28 00:26:50;;;;;;;2.57;2.13;;;8.90;60.20;;;8.87;45.36;95180.03;4993541;28;20886;-67
2023/04/28 00:29:17;;;;;;;5.50;2.80;;;8.90;60.30;;;8.83;45.25;95178.59;4990565;28;20947;-56
2023/04/28 00:31:45;;;;;;;5.13;2.23;;;8.80;60.40;;;8.81;45.43;95177.88;4997784;28;20525;-57
2023/04/28 00:34:13;;;;;;;3.20;2.07;;;8.80;60.50;;;8.77;45.80;95172.06;4991201;28;20463;-57
2023/04/28 00:36:41;;;;;;;2.33;2.13;;;8.80;60.60;;;8.74;45.71;95174.94;4997401;28;20472;-57
2023/04/28 00:39:10;;;;;;;5.73;2.17;;;8.70;60.50;;;8.72;45.55;95176.81;4995782;28;20472;-67
2023/04/28 00:41:37;;;;;;;4.50;2.00;;;8.80;60.80;;;8.70;45.92;95182.19;4995319;28;20553;-57
2023/04/28 00:44:08;;;;;;;3.40;2.33;;;8.70;61.10;;;8.70;45.58;95189.22;4994885;28;20457;-57
2023/04/28 00:46:36;;;;;;;7.40;2.30;;;8.70;60.90;;;8.67;45.66;95189.47;4994335;28;20545;-66
2023/04/28 00:49:03;;;;;;;3.47;1.83;;;8.70;61.10;;;8.65;45.59;95186.13;4996573;28;20501;-66
2023/04/28 00:51:32;;;;;;;6.40;2.43;;;8.70;61.20;;;8.63;46.04;95204.63;4993473;28;20521;-57
2023/04/28 00:53:59;;;;;;;7.03;2.07;;;8.60;61.30;;;8.62;46.37;95192.44;4995156;28;20454;-57
2023/04/28 00:56:29;;;;;;;2.03;1.83;;;8.60;61.40;;;8.60;45.91;95189.13;4995936;28;20465;-64
2023/04/28 00:58:57;;;;;;;3.23;2.10;;;8.60;61.50;;;8.57;45.78;95194.59;4994454;28;20532;-67
2023/04/28 01:01:24;;;;;;;2.47;1.83;;;8.60;61.40;;;8.55;46.16;95193.88;4995710;28;20458;-58
2023/04/28 01:03:51;;;;;;;4.73;2.00;;;8.60;61.40;;;8.52;45.69;95192.34;4995732;28;20540;-68
2023/04/28 01:06:19;;;;;;;2.57;2.00;;;8.50;61.50;;;8.49;45.87;95197.81;4993599;28;20492;-55
2023/04/28 01:08:48;;;;;;;3.40;2.33;;;8.50;61.70;;;8.46;45.95;95197.19;4993587;28;20564;-67
2023/04/28 01:11:16;;;;;;;5.90;1.80;;;8.50;61.70;;;8.44;46.58;95202.56;4990599;28;20547;-58
2023/04/28 01:13:44;;;;;;;6.30;2.30;;;8.40;62.00;;;8.43;46.55;95204.34;4994485;28;20899;-68
2023/04/28 01:16:12;;;;;;;2.70;2.17;;;8.50;62.30;;;8.41;46.58;95200.16;4985549;28;20446;-60
2023/04/28 01:18:40;;;;;;;3.67;1.70;;;8.40;62.00;;;8.39;46.64;95202.88;4994018;28;20479;-67
2023/04/28 01:21:07;;;;;;;12.17;2.10;;;8.40;62.30;;;8.37;46.64;95203.97;4995047;28;20471;-66
2023/04/28 01:23:35;;;;;;;2.67;2.13;;;8.40;62.30;;;8.33;46.74;95205.97;4999176;28;20500;-67
2023/04/28 01:26:03;;;;;;;2.77;2.27;;;8.30;62.20;;;8.27;46.24;95198.59;4987621;28;20904;-67
2023/04/28 01:28:30;;;;;;;2.80;2.27;;;8.30;62.20;;;8.22;46.69;95206.81;4997231;28;20477;-56
2023/04/28 01:30:58;;;;;;;2.43;2.23;;;8.30;62.20;;;8.20;46.66;95200.84;4994263;28;20498;-67
2023/04/28 01:33:25;;;;;;;4.40;2.10;;;8.20;62.10;;;8.19;46.42;95206.22;4994581;28;20475;-67
2023/04/28 01:35:57;;;;;;;2.73;2.50;;;8.20;62.10;;;8.17;46.73;95202.88;4992795;28;20477;-58
2023/04/28 01:38:24;;;;;;;2.03;1.90;;;8.20;62.10;;;8.17;46.74;95206.31;4990228;28;20474;-67
2023/04/28 01:40:51;;;;;;;6.87;2.63;;;8.20;62.10;;;8.16;46.59;95202.03;4995084;28;20450;-57
2023/04/28 01:43:20;;;;;;;6.40;2.00;;;8.20;62.40;;;8.14;46.54;95198.69;4991701;28;20475;-55
2023/04/28 01:45:47;;;;;;;3.13;2.03;;;8.20;62.50;;;8.12;46.99;95203.22;4992629;28;20460;-57
2023/04/28 01:48:15;;;;;;;4.80;2.07;;;8.20;62.20;;;8.10;46.43;95207.72;4993199;28;20587;-67
2023/04/28 01:50:42;;;;;;;3.87;2.07;;;8.20;62.60;;;8.11;46.25;95203.34;4987885;28;20501;-67
2023/04/28 01:53:09;;;;;;;14.57;2.20;;;8.10;62.40;;;8.08;46.99;95205.22;4994592;28;20474;-56
2023/04/28 01:55:37;;;;;;;5.47;2.60;;;8.10;62.40;;;8.04;46.60;95202.97;4993204;28;20461;-66
2023/04/28 01:58:05;;;;;;;2.37;2.20;;;8.10;62.30;;;8.02;46.60;95210.09;4993999;28;20564;-56
2023/04/28 02:00:33;;;;;;;3.17;2.60;;;8.00;62.40;;;7.99;46.83;95205.09;4991987;28;20468;-66
2023/04/28 02:03:01;;;;;;;7.67;2.60;;;8.00;62.40;;;7.98;47.07;95208.66;4993731;28;21001;-67
2023/04/28 02:05:28;;;;;;;5.03;2.50;;;8.00;62.40;;;7.98;46.79;95208.66;4995182;28;20962;-67
2023/04/28 02:07:56;;;;;;;2.47;2.27;;;8.00;62.60;;;7.97;46.59;95213.06;4991592;28;20528;-56
2023/04/28 02:10:23;;;;;;;5.90;2.67;;;8.00;62.80;;;7.96;46.48;95215.81;4994214;28;21064;-58
2023/04/28 02:12:50;;;;;;;2.90;2.37;;;8.00;62.70;;;7.94;47.11;95215.91;4995374;28;20474;-66
2023/04/28 02:15:18;;;;;;;2.00;1.80;;;7.90;62.70;;;7.92;46.79;95217.81;4993767;28;20480;-57
2023/04/28 02:17:47;;;;;;;3.47;2.60;;;7.90;62.60;;;7.93;46.97;95213.41;4992896;28;20474;-66
2023/04/28 02:20:14;;;;;;;2.77;2.40;;;7.90;62.60;;;7.90;46.45;95220.56;4997031;28;20542;-68
2023/04/28 02:22:41;;;;;;;3.97;2.60;;;7.90;62.60;;;7.90;46.89;95220.56;4991344;28;20482;-67
2023/04/28 02:25:09;;;;;;;6.00;3.00;;;7.90;62.70;;;7.89;47.51;95225.91;4995374;28;20455;-67
2023/04/28 02:27:37;;;;;;;4.13;2.43;;;7.90;62.90;;;7.87;47.21;95218.16;4994951;28;20479;-66
2023/04/28 02:30:05;;;;;;;5.60;2.77;;;7.90;62.90;;;7.87;47.28;95228.66;4992950;28;21014;-56
2023/04/28 02:32:32;;;;;;;8.07;3.03;;;7.90;63.00;;;7.87;47.38;95227.81;4990987;28;20480;-66
2023/04/28 02:35:01;;;;;;;5.73;2.50;;;7.90;63.10;;;7.85;46.93;95229.69;4992714;28;20866;-58
2023/04/28 02:37:28;;;;;;;5.37;2.77;;;7.90;63.10;;;7.84;47.02;95226.25;4991064;28;20475;-56
2023/04/28 02:39:56;;;;;;;1.73;1.63;;;7.90;63.20;;;7.82;47.19;95222.06;4991447;28;20971;-67
2023/04/28 02:42:23;;;;;;;5.97;2.53;;;7.90;63.20;;;7.78;46.71;95226.72;4988179;28;20483;-67
2023/04/28 02:44:50;;;;;;;8.40;2.53;;;7.90;63.20;;;7.77;47.53;95232.06;4996569;28;20946;-58
2023/04/28 02:47:18;;;;;;;9.67;3.87;;;7.80;63.30;;;7.74;47.08;95234.91;4988757;28;20537;-57
2023/04/28 02:49:45;;;;;;;2.13;1.93;;;7.80;63.40;;;7.74;47.49;95232.28;4995744;28;21028;-68
2023/04/28 02:52:14;;;;;;;3.80;2.50;;;7.80;63.50;;;7.72;47.19;95230.59;4994591;28;21059;-68
2023/04/28 02:54:41;;;;;;;5.77;2.27;;;7.80;63.50;;;7.72;47.30;95238.47;4993459;28;20457;-68
2023/04/28 02:57:08;;;;;;;2.13;1.97;;;7.80;63.60;;;7.71;47.59;95243.81;4995438;28;20548;-67
2023/04/28 02:59:36;;;;;;;5.07;2.20;;;7.70;63.40;;;7.68;47.64;95238.81;4991701;28;20470;-68
2023/04/28 03:02:03;;;;;;;3.30;3.00;;;7.70;63.60;;;7.69;47.67;95241.31;4997004;28;21002;-67
2023/04/28 03:04:30;;;;;;;20.80;2.20;;;7.70;63.70;;;7.70;47.12;95243.00;4988587;28;20505;-67
2023/04/28 03:06:58;;;;;;;2.20;2.00;;;7.70;63.60;;;7.68;47.65;95242.28;4993655;28;20478;-67
2023/04/28 03:09:26;;;;;;;2.33;2.13;;;7.70;63.50;;;7.69;47.57;95243.09;4996627;28;20449;-66
2023/04/28 03:11:54;;;;;;;3.20;2.37;;;7.70;63.50;;;7.69;47.29;95246.53;4995202;28;20463;-68
2023/04/28 03:14:21;;;;;;;3.73;2.30;;;7.70;63.40;;;7.71;46.60;95254.28;4993261;28;20453;-67
2023/04/28 03:16:48;;;;;;;3.10;2.30;;;7.70;63.30;;;7.72;47.02;95250.72;4991116;28;20480;-67
2023/04/28 03:19:16;;;;;;;3.53;2.30;;;7.70;63.40;;;7.72;46.79;95250.72;4992704;28;20859;-68
2023/04/28 03:21:43;;;;;;;2.63;2.43;;;7.70;63.30;;;7.71;47.34;95255.16;4994083;28;21040;-57
2023/04/28 03:24:10;;;;;;;6.90;2.97;;;7.70;63.20;;;7.74;47.11;95261.09;4994674;28;20869;-68
2023/04/28 03:26:39;;;;;;;3.63;2.63;;;7.70;63.40;;;7.74;47.16;95264.53;4992967;28;20457;-67
2023/04/28 03:29:06;;;;;;;7.27;3.13;;;7.80;63.40;;;7.76;47.48;95262.66;4992432;28;20482;-68
2023/04/28 03:31:34;;;;;;;3.50;3.20;;;7.80;63.40;;;7.76;46.95;95267.91;4991289;28;20578;-56
2023/04/28 03:34:02;;;;;;;3.37;2.87;;;7.80;63.40;;;7.77;46.52;95273.97;4993400;28;20465;-57
2023/04/28 03:36:29;;;;;;;3.90;2.73;;;7.80;63.30;;;7.77;46.51;95280.03;4998488;28;20511;-56
2023/04/28 03:38:56;;;;;;;5.90;2.47;;;7.80;63.20;;;7.77;46.75;95285.25;4996966;28;20453;-68
2023/04/28 03:41:24;;;;;;;3.07;2.27;;;7.80;63.00;;;7.76;46.60;95291.47;4995379;28;20524;-65
2023/04/28 03:43:53;;;;;;;7.70;2.50;;;7.80;63.30;;;7.76;47.76;95288.84;4995604;28;20534;-58
2023/04/28 03:46:20;;;;;;;7.13;3.40;;;7.80;64.20;;;7.69;46.86;95295.47;4992214;28;20462;-68
2023/04/28 03:48:47;;;;;;;3.37;2.30;;;7.70;63.50;;;7.63;46.68;95294.13;4995797;28;20483;-56
2023/04/28 03:51:15;;;;;;;5.30;2.77;;;7.60;63.10;;;7.58;47.11;95300.66;4991854;28;20601;-71
2023/04/28 03:53:42;;;;;;;10.53;2.73;;;7.60;63.40;;;7.51;47.70;95306.31;4991111;28;20563;-57
2023/04/28 03:56:09;;;;;;;9.47;2.57;;;7.60;63.50;;;7.46;47.48;95303.19;4997288;28;20462;-71
2023/04/28 03:58:38;;;;;;;4.33;2.40;;;7.50;63.60;;;7.45;47.02;95301.53;4988948;28;20562;-56
2023/04/28 04:01:07;;;;;;;7.63;2.80;;;7.50;63.70;;;7.44;47.03;95312.94;4993025;28;20466;-70
2023/04/28 04:03:34;;;;;;;6.53;3.03;;;7.50;63.90;;;7.43;47.89;95307.81;4998128;28;21044;-71
2023/04/28 04:06:01;;;;;;;8.50;4.00;;;7.50;63.90;;;7.43;47.48;95310.44;4998806;28;20484;-56
2023/04/28 04:08:29;;;;;;;4.47;2.80;;;7.50;64.40;;;7.44;47.84;95310.31;4994947;28;20486;-55
2023/04/28 04:10:56;;;;;;;7.23;3.43;;;7.50;65.10;;;7.48;47.83;95306.53;4995836;28;20544;-73
2023/04/28 04:13:23;;;;;;;3.43;3.13;;;7.50;65.50;;;7.51;48.35;95311.56;4997263;28;20596;-57
2023/04/28 04:15:51;;;;;;;4.57;2.30;;;7.50;65.00;;;7.54;48.30;95316.56;4998459;28;20454;-71
2023/04/28 04:18:20;;;;;;;4.73;2.30;;;7.50;65.10;;;7.58;48.03;95316.34;4994814;28;20477;-57
2023/04/28 04:20:48;;;;;;;2.20;2.07;;;7.60;64.70;;;7.59;47.58;95325.88;4990090;28;20454;-71
2023/04/28 04:23:15;;;;;;;3.33;2.67;;;7.60;64.50;;;7.60;47.90;95324.94;4991555;28;20484;-72
2023/04/28 04:25:43;;;;;;;3.10;2.30;;;7.60;64.70;;;7.62;48.15;95328.25;4992903;28;20454;-71
2023/04/28 04:28:10;;;;;;;2.90;2.50;;;7.70;64.90;;;7.64;47.96;95337.69;4993014;28;20483;-58
2023/04/28 04:30:37;;;;;;;4.30;2.10;;;7.70;65.30;;;7.70;47.86;95339.03;4992450;28;21057;-74
2023/04/28 04:33:05;;;;;;;3.23;2.47;;;7.70;65.60;;;7.76;49.08;95337.75;4993295;28;20478;-73
2023/04/28 04:35:34;;;;;;;8.17;3.10;;;7.70;66.10;;;7.78;48.25;95339.31;4995716;28;20465;-57
2023/04/28 04:38:03;;;;;;;5.47;2.83;;;7.80;65.40;;;7.82;47.94;95343.38;4992675;28;20915;-57
2023/04/28 04:40:30;;;;;;;7.13;3.27;;;7.80;65.40;;;7.87;48.10;95338.63;4997502;28;20465;-56
2023/04/28 04:42:57;;;;;;;3.03;2.83;;;7.90;64.70;;;7.90;47.53;95341.03;4990637;28;20494;-56
2023/04/28 04:45:25;;;;;;;7.50;3.10;;;7.90;64.50;;;7.93;47.76;95347.81;4984437;28;20474;-72
2023/04/28 04:47:53;;;;;;;13.33;4.50;;;7.90;65.30;;;7.96;47.24;95346.75;4993731;28;21001;-70
2023/04/28 04:50:20;;;;;;;3.43;3.13;;;7.90;64.40;;;7.97;47.33;95354.50;4991363;28;20604;-70
2023/04/28 04:52:49;;;;;;;8.10;2.73;;;8.00;65.20;;;8.03;48.27;95353.25;4993592;28;20908;-57
2023/04/28 04:55:16;;;;;;;5.43;2.67;;;8.00;64.90;;;8.07;47.83;95352.03;4996009;28;20465;-57
2023/04/28 04:57:44;;;;;;;2.97;2.37;;;8.10;64.80;;;8.10;47.77;95357.06;4991882;28;20505;-59
2023/04/28 05:00:13;;;;;;;8.10;2.50;;;8.10;64.90;;;8.14;47.86;95362.94;4993356;28;20465;-67
2023/04/28 05:02:40;;;;;;;5.40;2.50;;;8.10;65.20;;;8.18;48.05;95362.59;4989543;28;20475;-57
2023/04/28 05:05:08;;;;;;;4.20;2.57;;;8.20;65.40;;;8.24;48.16;95366.53;4995466;28;20450;-58
2023/04/28 05:07:36;;;;;;;6.03;2.20;;;8.20;65.50;;;8.28;47.72;95370.59;4992340;28;20981;-65
2023/04/28 05:10:06;;;;;;;3.20;2.70;;;8.30;65.40;;;8.34;47.73;95370.16;4991732;28;20518;-67
2023/04/28 05:12:33;;;;;;;3.93;2.60;;;8.30;65.50;;;8.39;47.59;95369.81;4992253;28;20479;-57
2023/04/28 05:15:00;;;;;;;5.50;3.00;;;8.40;65.20;;;8.39;47.40;95364.56;4990519;28;20513;-67
2023/04/28 05:17:28;;;;;;;5.40;2.70;;;8.40;64.90;;;8.45;47.33;95369.38;4996021;28;20481;-67
2023/04/28 05:19:55;;;;;;;5.63;2.90;;;8.40;64.90;;;8.52;47.34;95370.59;4991713;28;20464;-56
2023/04/28 05:22:22;;;;;;;6.93;2.80;;;8.50;65.00;;;8.58;47.18;95372.78;4992766;28;20502;-58
2023/04/28 05:24:49;;;;;;;2.97;2.60;;;8.50;65.00;;;8.68;47.44;95374.69;4990553;28;20462;-57
2023/04/28 05:27:18;;;;;;;23.50;3.00;;;8.60;65.00;;;8.82;46.92;95365.78;4992881;28;20474;-57
2023/04/28 05:29:46;;;;;;;10.73;2.77;;;8.80;64.70;;;9.00;46.72;95371.41;4993135;28;20806;-68
2023/04/28 05:32:13;;;;;;;3.43;2.30;;;8.90;64.60;;;9.18;46.93;95367.34;4991501;28;20509;-68
2023/04/28 05:34:40;;;;;;;4.47;2.57;;;9.10;64.50;;;9.37;46.58;95360.66;4991691;28;20456;-56
2023/04/28 05:37:07;;;;;;;9.20;2.27;;;9.20;64.20;;;9.59;46.22;95368.53;4993494;28;20536;-58
2023/04/28 05:39:35;;;;;;;3.20;2.70;;;9.40;63.70;;;9.77;45.72;95368.03;4989720;28;20828;-69
2023/04/28 05:42:03;;;;;;;3.03;2.73;;;9.60;63.40;;;9.98;45.48;95361.03;4995469;28;20474;-57
2023/04/28 05:44:31;;;;;;;5.47;2.80;;;9.80;63.10;;;10.24;45.28;95360.72;4993638;28;20870;-68
2023/04/28 05:46:59;;;;;;;3.33;2.70;;;10.00;61.60;;;10.51;44.95;95357.63;4992987;28;21033;-56
2023/04/28 05:49:26;;;;;;;4.07;2.50;;;10.30;61.30;;;10.76;44.30;95364.31;4991902;28;20503;-69
2023/04/28 05:51:53;;;;;;;4.93;2.07;;;10.50;60.30;;;10.98;43.99;95373.03;4989031;28;20494;-56
2023/04/28 05:54:21;;;;;;;3.50;2.77;;;10.70;59.90;;;11.23;43.04;95370.94;4987033;28;20461;-57
2023/04/28 05:56:48;;;;;;;3.30;2.70;;;10.90;59.10;;;11.48;43.01;95367.88;4994917;28;20459;-70
2023/04/28 05:59:15;;;;;;;2.97;2.60;;;11.20;59.40;;;11.71;42.65;95374.72;4994151;28;20464;-57
2023/04/28 06:01:44;;;;;;;2.57;2.37;;;11.40;58.10;;;11.95;42.27;95369.97;4993627;28;20462;-56
2023/04/28 06:04:11;;;;;;;2.90;2.53;;;11.70;58.30;;;12.14;42.05;95363.88;4989819;28;20455;-58
2023/04/28 06:06:39;;;;;;;12.60;2.50;;;11.90;58.10;;;12.31;41.95;95364.19;4994172;28;20488;-70
2023/04/28 06:09:06;;;;;;;7.17;6.27;;;12.00;57.50;;;12.47;41.64;95361.84;4994223;28;20454;-58
2023/04/28 06:11:33;;;;;;;2.13;1.93;;;12.20;57.40;;;12.63;40.85;95361.25;4994747;28;20495;-58
2023/04/28 06:14:01;;;;;;;6.67;3.03;;;12.30;56.50;;;12.76;40.95;95365.41;4993347;28;20450;-69
2023/04/28 06:16:29;;;;;;;3.73;2.30;;;12.50;56.70;;;12.84;40.61;95366.38;4993113;28;20462;-69
2023/04/28 06:18:57;;;;;;;30.37;3.57;;;12.50;56.10;;;13.00;40.36;95370.25;4989325;28;20470;-68
2023/04/28 06:21:26;;;;;;;5.00;3.00;;;12.70;56.10;;;13.22;40.27;95356.69;4996086;28;20453;-68
2023/04/28 06:23:53;;;;;;;2.67;2.47;;;12.80;56.10;;;13.50;39.82;95367.34;4991841;28;20462;-68
2023/04/28 06:26:21;;;;;;;6.50;2.93;;;13.10;55.40;;;13.72;39.45;95362.66;4994319;28;20461;-69
2023/04/28 06:28:48;;;;;;;7.43;3.80;;;13.40;55.10;;;13.93;39.37;95362.41;4997163;28;21025;-68
2023/04/28 06:31:15;;;;;;;7.23;3.27;;;13.60;55.20;;;14.13;38.88;95376.34;4989086;28;20487;-68
2023/04/28 06:33:42;;;;;;;5.43;2.23;;;13.80;54.30;;;14.25;37.85;95364.56;4995732;28;21431;-70
2023/04/28 06:36:12;;;;;;;4.50;3.10;;;13.90;53.40;;;14.40;36.53;95369.31;4993929;28;20504;-58
2023/04/28 06:38:41;;;;;;;7.63;2.37;;;14.00;51.80;;;14.52;38.46;95363.63;4995721;28;20476;-56
2023/04/28 06:41:08;;;;;;;4.23;2.30;;;14.20;53.60;;;14.69;38.11;95362.00;4991514;28;20948;-69
2023/04/28 06:43:36;;;;;;;5.53;2.40;;;14.40;53.10;;;14.87;37.70;95361.13;4993013;28;20462;-56
2023/04/28 06:46:03;;;;;;;6.43;2.30;;;14.50;52.90;;;15.06;37.20;95368.06;4994432;28;20481;-68
2023/04/28 06:48:30;;;;;;;3.83;2.87;;;14.70;52.60;;;15.12;37.16;95363.94;4995288;28;20491;-69
2023/04/28 06:50:58;;;;;;;5.67;2.30;;;14.80;52.50;;;15.16;37.30;95366.13;4991239;28;20894;-67
2023/04/28 06:53:26;;;;;;;4.03;2.50;;;14.80;52.40;;;15.19;36.91;95365.81;4994300;28;20478;-56
2023/04/28 06:55:54;;;;;;;4.17;2.17;;;14.90;51.90;;;15.20;35.65;95364.84;4995692;28;20462;-56
2023/04/28 06:58:22;;;;;;;4.13;2.70;;;14.90;50.40;;;15.34;36.26;95359.97;4991564;28;20541;-69
2023/04/28 07:00:50;;;;;;;2.70;1.97;;;14.90;51.00;;;15.53;36.47;95361.56;4995749;28;20581;-56
2023/04/28 07:03:17;;;;;;;8.33;2.70;;;15.10;51.40;;;15.73;35.82;95362.97;4993748;28;21352;-68
2023/04/28 07:05:44;;;;;;;6.30;1.90;;;15.30;50.50;;;15.99;36.05;95356.78;4993544;28;20952;-68
2023/04/28 07:08:11;;;;;;;2.70;1.60;;;15.60;50.90;;;16.29;35.74;95351.88;4996479;28;20565;-57
2023/04/28 07:10:40;;;;;;;3.83;2.50;;;15.80;50.60;;;16.54;35.20;95349.25;4995127;28;20514;-68
2023/04/28 07:13:07;;;;;;;7.70;2.47;;;16.10;49.80;;;16.77;34.90;95355.56;4996193;28;20471;-69
2023/04/28 07:15:35;;;;;;;4.77;2.30;;;16.30;49.70;;;17.01;33.16;95362.75;4994626;28;20458;-58
2023/04/28 07:18:02;;;;;;;5.90;2.00;;;16.50;48.00;;;17.27;32.99;95358.22;4995782;28;20508;-69
2023/04/28 07:20:29;;;;;;;3.67;2.03;;;16.80;47.00;;;17.49;33.17;95352.19;4999932;28;20456;-56
2023/04/28 07:22:57;;;;;;;4.37;2.57;;;17.10;47.30;;;17.71;32.94;95355.13;4997352;28;20477;-57
2023/04/28 07:25:24;;;;;;;3.87;2.60;;;17.30;47.50;;;17.90;33.24;95345.91;4997609;28;20489;-69
2023/04/28 07:27:54;;;;;;;2.57;2.07;;;17.50;47.40;;;18.09;32.57;95350.81;4996047;28;20473;-56
2023/04/28 07:30:21;;;;;;;3.53;1.63;;;17.70;47.20;;;18.29;32.18;95347.69;4995779;28;20496;-68
2023/04/28 07:32:49;;;;;;;3.43;2.10;;;17.90;46.60;;;18.51;31.92;95345.22;4992591;28;20504;-69
2023/04/28 07:35:16;;;;;;;2.60;2.03;;;18.10;46.00;;;18.68;31.19;95346.75;4995021;28;20469;-58
2023/04/28 07:37:43;;;;;;;2.30;2.10;;;18.20;45.20;;;18.72;30.48;95344.59;4995739;28;20484;-68
2023/04/28 07:40:11;;;;;;;5.33;1.90;;;18.30;44.40;;;18.87;31.49;95342.81;4997218;28;20942;-58
2023/04/28 07:42:39;;;;;;;4.03;2.70;;;18.40;45.10;;;19.15;30.68;95344.91;4995891;28;20469;-68
2023/04/28 07:45:08;;;;;;;3.73;1.80;;;18.70;45.00;;;19.44;31.28;95343.28;4997972;28;20454;-58
2023/04/28 07:47:36;;;;;;;9.07;2.37;;;18.90;44.80;;;19.70;30.30;95349.00;4997578;28;21010;-70
2023/04/28 07:50:05;;;;;;;2.33;1.70;;;19.20;44.10;;;19.82;30.27;95338.69;4997174;28;20545;-58
2023/04/28 07:52:32;;;;;;;6.83;2.57;;;19.40;43.70;;;19.99;29.70;95338.50;4995083;28;20884;-56
2023/04/28 07:55:01;;;;;;;3.53;2.00;;;19.60;43.20;;;20.13;29.26;95337.63;4995084;28;20458;-68
2023/04/28 07:57:29;;;;;;;3.23;1.80;;;19.70;43.20;;;20.24;29.24;95339.81;4995637;28;21010;-57
2023/04/28 07:59:56;;;;;;;11.07;2.53;;;19.80;42.30;;;20.34;28.98;95342.19;4993752;28;20969;-57
2023/04/28 08:02:26;;;;;;;4.10;1.80;;;19.90;42.80;;;20.41;29.06;95337.72;4994389;28;20477;-57
2023/04/28 08:04:53;;;;;;;3.57;2.37;;;20.00;42.70;;;20.55;29.04;95330.69;4996042;28;20499;-69
2023/04/28 08:07:20;;;;;;;3.90;1.87;;;20.10;42.30;;;20.77;27.67;95344.06;5000392;28;20486;-68
2023/04/28 08:09:48;;;;;;;3.27;1.80;;;20.30;40.20;;;20.95;28.65;95341.78;4993395;28;20513;-56
2023/04/28 08:12:15;;;;;;;3.50;2.10;;;20.50;42.10;;;21.18;28.83;95334.53;5000529;28;20506;-68
2023/04/28 08:14:42;;;;;;;3.70;2.10;;;20.70;41.90;;;21.54;28.42;95338.94;4991618;28;21040;-69
2023/04/28 08:17:09;;;;;;;24.70;8.10;;;21.00;41.30;;;21.83;27.44;95344.06;4992206;28;20475;-56
2023/04/28 08:19:38;;;;;;;11.10;3.57;;;21.40;40.50;;;22.01;27.42;95346.22;4996654;28;20945;-57
2023/04/28 08:22:06;;;;;;;3.23;2.03;;;21.60;40.80;;;22.18;27.71;95344.00;4994966;28;20558;-69
2023/04/28 08:24:34;;;;;;;2.50;1.93;;;21.70;40.70;;;22.43;26.72;95343.47;4993993;28;20970;-57
2023/04/28 08:27:02;;;;;;;6.33;1.47;;;21.90;40.20;;;22.66;25.48;95342.28;4994044;28;20470;-68
2023/04/28 08:29:30;;;;;;;2.43;1.90;;;22.20;38.60;;;22.85;26.76;95330.78;4996724;28;20826;-56
2023/04/28 08:31:57;;;;;;;3.50;1.70;;;22.40;39.80;;;22.99;26.11;95331.63;4993819;28;20544;-69
2023/04/28 08:34:25;;;;;;;2.77;1.80;;;22.60;39.10;;;23.10;25.79;95338.25;4994054;28;20517;-69
2023/04/28 08:36:53;;;;;;;5.00;2.63;;;22.70;38.20;;;23.05;25.72;95335.31;4998398;28;21017;-60
2023/04/28 08:39:22;;;;;;;2.30;1.73;;;22.70;38.30;;;23.13;25.42;95332.47;4995865;28;20464;-68
2023/04/28 08:41:50;;;;;;;4.80;1.93;;;22.80;38.20;;;23.30;26.13;95330.19;4997491;28;20469;-69
2023/04/28 08:44:17;;;;;;;4.23;2.10;;;22.80;38.10;;;23.45;23.47;95330.78;4997295;28;20452;-69
2023/04/28 08:46:45;;;;;;;7.63;1.80;;;23.00;34.70;;;23.38;22.82;95329.16;4995967;28;20453;-58
2023/04/28 08:49:16;;;;;;;7.53;1.83;;;23.00;33.90;;;23.31;22.68;95322.97;4992483;28;20454;-57
2023/04/28 08:51:46;;;;;;;3.67;1.43;;;23.00;33.80;;;23.29;24.59;95325.84;4997527;28;20648;-65
2023/04/28 08:54:16;;;;;;;4.10;1.80;;;22.90;36.60;;;23.43;24.84;95323.97;4991054;28;21494;-69
2023/04/28 08:56:44;;;;;;;5.03;2.53;;;23.00;36.30;;;23.43;25.26;95322.09;4995477;28;20451;-68
2023/04/28 08:59:12;;;;;;;2.63;2.00;;;23.10;36.60;;;23.60;25.09;95321.66;4995022;28;20492;-58
2023/04/28 09:01:39;;;;;;;3.43;1.50;;;23.10;36.60;;;23.76;24.80;95317.69;4993310;28;21252;-57
2023/04/28 09:04:07;;;;;;;3.80;2.07;;;23.30;36.70;;;23.94;24.20;95319.75;4995316;28;20955;-58
2023/04/28 09:06:36;;;;;;;3.83;2.30;;;23.50;36.30;;;24.05;24.28;95319.06;4990857;28;20578;-69
2023/04/28 09:09:24;;;;;;;3.03;1.40;;;23.60;36.30;;;24.22;23.50;95310.53;4991027;28;21451;-69
2023/04/28 09:11:54;;;;;;;6.00;2.00;;;23.80;35.30;;;24.24;24.50;95303.88;4995267;28;20564;-69
2023/04/28 09:14:21;;;;;;;3.50;1.40;;;23.90;35.80;;;24.34;23.08;95306.94;4995739;28;20507;-56
2023/04/28 09:16:49;;;;;;;4.43;1.87;;;23.90;34.70;;;24.30;21.68;95297.66;4997489;28;20585;-56
2023/04/28 09:19:16;;;;;;;7.90;1.77;;;23.80;32.10;;;24.07;23.45;95297.38;4992687;28;20458;-57
2023/04/28 09:21:51;;;;;;;9.17;1.70;;;23.80;34.80;;;24.06;24.41;95298.38;4995094;28;20813;-57
2023/04/28 09:24:32;;;;;;;5.03;1.70;;;23.70;35.40;;;24.20;23.22;95294.63;5000199;28;20514;-69
2023/04/28 09:26:59;;;;;;;3.53;1.80;;;23.80;35.20;;;24.30;23.92;95292.28;4994175;28;20485;-69
2023/04/28 09:29:27;;;;;;;4.03;1.50;;;23.90;35.30;;;24.34;22.83;95293.50;4994306;28;20458;-68
2023/04/28 09:31:54;;;;;;;5.80;2.10;;;23.90;33.40;;;24.34;24.00;95290.00;4993851;28;21131;-57
2023/04/28 09:34:22;;;;;;;3.00;1.50;;;24.00;35.30;;;24.43;23.36;95287.84;4993611;28;20486;-69
2023/04/28 09:36:49;;;;;;;2.20;1.60;;;24.00;34.50;;;24.34;22.37;95277.38;4996497;28;20481;-58
2023/04/28 09:39:28;;;;;;;2.73;1.60;;;23.90;32.10;;;24.24;22.73;95274.31;4982884;28;20463;-58
2023/04/28 09:42:02;;;;;;;7.23;1.90;;;23.90;34.10;;;24.26;24.14;95274.09;4992012;28;20561;-59
2023/04/28 09:44:29;;;;;;;2.23;1.47;;;23.80;34.80;;;24.40;24.07;95269.47;4993694;28;21294;-57
2023/04/28 09:46:57;;;;;;;4.00;1.53;;;23.90;34.50;;;24.53;23.32;95258.63;4985805;28;20470;-69
2023/04/28 09:49:24;;;;;;;6.00;2.10;;;24.10;34.00;;;24.52;23.53;95267.75;4991383;28;21234;-69
2023/04/28 09:51:51;;;;;;;3.63;1.40;;;24.10;34.00;;;24.54;23.32;95260.28;4993024;28;20520;-70
2023/04/28 09:54:19;;;;;;;4.80;1.70;;;24.10;33.50;;;24.50;22.83;95267.13;4992771;28;20453;-58
2023/04/28 09:56:47;;;;;;;1.70;1.40;;;24.10;33.70;;;24.39;22.51;95259.78;4988954;28;20478;-69
2023/04/28 09:59:15;;;;;;;1.87;1.10;;;24.00;33.10;;;24.37;21.60;95256.47;4992637;28;20461;-58
2023/04/28 10:01:42;;;;;;;9.33;2.00;;;24.00;32.20;;;24.26;23.10;95253.44;4991241;28;20458;-69
2023/04/28 10:04:11;;;;;;;2.80;1.90;;;23.90;33.30;;;24.05;21.12;95249.19;4993923;28;20833;-70
2023/04/28 10:06:39;;;;;;;5.63;1.70;;;23.70;31.10;;;23.69;21.74;95250.56;4989376;28;20451;-57
2023/04/28 10:09:06;;;;;;;3.80;1.33;;;23.40;30.90;;;23.42;22.82;95237.25;4995079;28;20455;-69
2023/04/28 10:11:33;;;;;;;4.63;1.67;;;23.10;33.20;;;23.45;23.50;95244.03;4994245;28;20487;-57
2023/04/28 10:14:01;;;;;;;2.20;2.00;;;23.10;33.60;;;23.56;23.05;95239.88;4988943;28;20549;-69
2023/04/28 10:16:31;;;;;;;3.53;1.60;;;23.10;33.60;;;23.71;22.75;95243.13;4995506;28;20469;-70
2023/04/28 10:18:58;;;;;;;1.37;1.27;;;23.20;33.00;;;23.75;23.02;95243.50;4987995;28;20469;-57
2023/04/28 10:21:25;;;;;;;5.77;1.80;;;23.30;32.80;;;23.71;22.38;95229.69;4993904;28;20461;-57
2023/04/28 10:24:05;;;;;;;11.97;3.20;;;23.30;32.40;;;23.63;22.59;95230.75;4996491;28;20485;-58
2023/04/28 10:27:04;;;;;;;8.40;3.53;;;23.20;32.90;;;23.59;22.62;95236.75;4993832;28;20468;-57
2023/04/28 10:29:33;;;;;;;3.73;1.43;;;23.20;33.10;;;23.51;21.66;95229.78;4990521;28;20883;-68